Time;durP1;ratioP1;P1;durP2;ratioP2;P2;SDS_P1;SDS_P2;PMS_P1;PMS_P2;Temp;Humidity;BMP_temperature;BMP_pressure;BME280_temperature;BME280_humidity;BME280_pressure;Samples;Min_cycle;Max_cycle;Signal;HPM_P1;HPM_P2
2024/02/29 00:03:48;;;;;;;19.35;12.82;;;;;;;-0.91;100.00;148440.81;10656918;27;20047;-75
2024/02/29 00:08:50;;;;;;;17.40;12.50;;;;;;;-1.16;100.00;148378.13;10658990;27;20042;-74
2024/02/29 00:13:52;;;;;;;26.50;14.65;;;;;;;-0.99;100.00;148420.34;10656488;27;20160;-74
2024/02/29 00:18:54;;;;;;;17.67;11.77;;;;;;;-1.47;100.00;148298.84;10674553;27;20043;-75
2024/02/29 00:23:56;;;;;;;13.38;11.80;;;;;;;-1.54;100.00;148282.25;10656122;27;20042;-74
2024/02/29 00:28:58;;;;;;;20.95;13.27;;;;;;;-1.25;100.00;148355.13;10673873;27;20050;-75
2024/02/29 00:34:00;;;;;;;21.73;13.43;;;;;;;-1.23;100.00;148360.25;10673747;27;20110;-75
2024/02/29 00:39:02;;;;;;;25.60;15.52;;;;;;;-1.49;100.00;148295.03;10675007;27;20035;-75
2024/02/29 00:44:15;;;;;;;18.77;12.63;;;;;;;-1.43;100.00;148309.09;10673311;27;20039;-75
2024/02/29 00:49:17;;;;;;;16.67;12.10;;;;;;;-1.60;100.00;148268.16;10673827;27;20042;-74
2024/02/29 00:54:19;;;;;;;20.60;13.93;;;;;;;-1.57;100.00;148275.84;10673524;27;20053;-75
2024/02/29 00:59:20;;;;;;;18.77;12.85;;;;;;;-1.40;100.00;148316.78;10674460;27;20045;-75
2024/02/29 01:04:23;;;;;;;18.02;11.75;;;;;;;-1.62;100.00;148263.06;10675018;27;20031;-74
2024/02/29 01:09:27;;;;;;;19.30;12.90;;;;;;;-1.31;100.00;148339.78;10673916;27;20486;-75
2024/02/29 01:14:29;;;;;;;19.88;12.00;;;;;;;-1.61;100.00;148265.63;10655875;27;20047;-74
2024/02/29 01:19:31;;;;;;;18.58;12.52;;;;;;;-1.82;100.00;148211.94;10673714;27;20049;-75
2024/02/29 01:24:33;;;;;;;23.25;12.98;;;;;;;-2.00;100.00;148167.19;10673666;27;20066;-75
2024/02/29 01:29:35;;;;;;;17.80;11.73;;;;;;;-1.83;100.00;148210.66;10653307;27;20578;-74
2024/02/29 01:34:37;;;;;;;20.08;13.40;;;;;;;-1.83;100.00;148209.38;10679019;27;20062;-74
2024/02/29 01:39:39;;;;;;;16.77;11.70;;;;;;;-2.05;100.00;148154.41;10679476;27;20042;-74
2024/02/29 01:44:54;;;;;;;14.32;12.50;;;;;;;-1.68;100.00;148247.75;10680309;27;20043;-75
2024/02/29 01:50:04;;;;;;;15.05;11.02;;;;;;;-1.82;100.00;148211.94;10662103;27;20091;-75
2024/02/29 01:55:06;;;;;;;17.20;12.70;;;;;;;-1.90;100.00;148192.78;10680308;27;20043;-76
2024/02/29 02:00:10;;;;;;;16.33;11.18;;;;;;;-1.75;100.00;148229.84;10661914;27;20091;-74
2024/02/29 02:05:12;;;;;;;17.45;10.63;;;;;;;-1.56;100.00;148277.13;10680778;27;20043;-74
2024/02/29 02:10:14;;;;;;;19.42;10.73;;;;;;;-1.88;100.00;148197.88;10678651;27;20169;-75
2024/02/29 02:15:16;;;;;;;17.63;11.32;;;;;;;-1.99;100.00;148168.47;10678608;27;20038;-74
2024/02/29 02:20:18;;;;;;;14.10;10.70;;;;;;;-1.91;100.00;148190.19;10678413;27;20133;-74
2024/02/29 02:25:20;;;;;;;13.43;10.65;;;;;;;-1.97;100.00;148174.88;10658333;27;20051;-75
2024/02/29 02:30:22;;;;;;;20.05;12.10;;;;;;;-1.66;100.00;148252.84;10658841;27;20126;-74
2024/02/29 02:35:24;;;;;;;15.63;11.20;;;;;;;-1.93;100.00;148183.84;10675742;27;20512;-74
2024/02/29 02:40:25;;;;;;;17.02;12.20;;;;;;;-1.87;100.00;148200.41;10676325;27;20087;-75
2024/02/29 02:45:28;;;;;;;16.95;10.63;;;;;;;-2.23;100.00;148108.44;10656471;27;20399;-74
2024/02/29 02:50:29;;;;;;;14.75;9.88;;;;;;;-2.25;100.00;148103.34;10656643;27;20043;-74
2024/02/29 02:55:31;;;;;;;20.52;12.77;;;;;;;-1.82;100.00;148211.94;10674350;27;20046;-75
2024/02/29 03:00:33;;;;;;;14.80;10.77;;;;;;;-1.97;100.00;148173.59;10674779;27;20438;-75
2024/02/29 03:05:36;;;;;;;14.60;10.65;;;;;;;-2.26;100.00;148100.75;10674100;27;20034;-75
2024/02/29 03:10:37;;;;;;;19.95;11.70;;;;;;;-2.24;100.00;148105.88;10656901;27;20030;-74
2024/02/29 03:15:40;;;;;;;14.98;10.50;;;;;;;-2.28;100.00;148098.19;10656334;27;20501;-74
2024/02/29 03:20:42;;;;;;;19.85;11.15;;;;;;;-2.16;100.00;148127.59;10672831;27;20060;-75
2024/02/29 03:25:43;;;;;;;14.27;11.15;;;;;;;-2.22;100.00;148110.97;10673888;27;20039;-75
2024/02/29 03:30:45;;;;;;;15.45;9.75;;;;;;;-2.41;100.00;148065.00;10672561;27;20039;-74
2024/02/29 03:35:47;;;;;;;19.17;10.52;;;;;;;-2.64;100.00;148007.50;10653708;27;20038;-74
2024/02/29 03:40:51;;;;;;;14.80;10.30;;;;;;;-2.52;100.00;148036.91;10672249;27;20046;-74
2024/02/29 03:45:53;;;;;;;18.58;11.52;;;;;;;-2.41;100.00;148063.72;10672442;27;20043;-74
2024/02/29 03:50:55;;;;;;;13.95;11.02;;;;;;;-2.24;100.00;148105.88;10672675;27;20507;-74
2024/02/29 03:55:56;;;;;;;16.70;10.88;;;;;;;-2.55;100.00;148029.22;10670978;27;20054;-74
2024/02/29 04:00:58;;;;;;;16.30;11.63;;;;;;;-2.22;100.00;148112.25;10652383;27;20138;-74
2024/02/29 04:06:00;;;;;;;15.88;11.38;;;;;;;-2.45;100.00;148053.50;10672622;27;20117;-74
2024/02/29 04:11:02;;;;;;;17.55;10.80;;;;;;;-2.49;100.00;148044.53;10654711;27;20038;-74
2024/02/29 04:16:04;;;;;;;20.77;11.80;;;;;;;-2.66;100.00;148001.09;10671689;27;20099;-75
2024/02/29 04:21:06;;;;;;;14.98;9.90;;;;;;;-2.76;100.00;147976.84;10653240;27;20045;-74
2024/02/29 04:26:08;;;;;;;13.45;9.93;;;;;;;-2.88;100.00;147947.50;10670895;27;20046;-74
2024/02/29 04:31:10;;;;;;;15.98;10.55;;;;;;;-2.62;100.00;148011.31;10651837;27;20088;-74
2024/02/29 04:36:12;;;;;;;15.65;10.80;;;;;;;-2.47;100.00;148049.69;10669947;27;20414;-74
2024/02/29 04:41:13;;;;;;;14.95;9.70;;;;;;;-2.71;100.00;147988.34;10670888;27;20035;-75
2024/02/29 04:46:15;;;;;;;17.75;10.23;;;;;;;-2.95;100.00;147928.34;10671428;27;20085;-74
2024/02/29 04:51:17;;;;;;;20.20;9.70;;;;;;;-2.58;100.00;148021.56;10670190;27;20035;-74
2024/02/29 04:56:19;;;;;;;19.52;10.98;;;;;;;-2.63;100.00;148010.06;10670750;27;20092;-74
2024/02/29 05:01:20;;;;;;;17.00;10.30;;;;;;;-2.71;100.00;147989.63;10651193;27;20034;-74
2024/02/29 05:06:22;;;;;;;14.70;10.32;;;;;;;-2.82;100.00;147961.53;10673001;27;20084;-75
2024/02/29 05:11:24;;;;;;;13.77;9.88;;;;;;;-2.74;100.00;147980.72;10678417;27;20031;-74
2024/02/29 05:16:26;;;;;;;17.00;10.93;;;;;;;-2.43;100.00;148059.91;10676388;27;20087;-75
2024/02/29 05:21:27;;;;;;;14.18;9.38;;;;;;;-2.37;100.00;148075.22;10676834;27;20035;-74
2024/02/29 05:26:29;;;;;;;14.32;9.70;;;;;;;-2.24;100.00;148107.16;10658018;27;20038;-74
2024/02/29 05:31:31;;;;;;;10.52;7.88;;;;;;;-2.30;100.00;148091.84;10676792;27;20039;-74
2024/02/29 05:36:33;;;;;;;9.95;7.47;;;;;;;-2.58;100.00;148022.81;10677535;27;20446;-75
2024/02/29 05:41:35;;;;;;;11.93;8.93;;;;;;;-2.58;100.00;148021.56;10675785;27;20041;-74
2024/02/29 05:46:36;;;;;;;14.52;8.98;;;;;;;-2.59;100.00;148020.28;10676560;27;20047;-75
2024/02/29 05:51:38;;;;;;;14.27;8.85;;;;;;;-2.58;100.00;148022.81;10640774;27;20053;-75
2024/02/29 05:56:40;;;;;;;12.73;8.60;;;;;;;-2.47;100.00;148049.69;10675671;27;20050;-74
2024/02/29 06:01:42;;;;;;;14.52;8.73;;;;;;;-2.21;100.00;148113.53;10675441;27;20035;-75
2024/02/29 06:06:44;;;;;;;12.80;7.68;;;;;;;-1.65;100.00;148255.38;10675562;27;20049;-74
2024/02/29 06:11:47;;;;;;;11.75;7.75;;;;;;;-1.88;100.00;148196.59;10675983;27;20410;-74
2024/02/29 06:16:49;;;;;;;11.90;8.02;;;;;;;-1.83;100.00;148209.38;10674229;27;20403;-74
2024/02/29 06:21:51;;;;;;;12.73;9.35;;;;;;;-1.52;100.00;148288.63;10673794;27;20062;-74
2024/02/29 06:26:53;;;;;;;12.85;9.32;;;;;;;-1.53;100.00;148286.09;10673913;27;20162;-75
2024/02/29 06:31:54;;;;;;;19.10;10.65;;;;;;;-1.40;100.00;148316.78;10674205;27;20043;-74
2024/02/29 06:36:57;;;;;;;23.23;10.05;;;;;;;-1.34;100.00;148332.09;10673619;27;20050;-74
2024/02/29 06:41:59;;;;;;;21.05;13.00;;;;;;;-1.19;100.00;148369.22;10673462;27;20035;-73
2024/02/29 06:47:01;;;;;;;26.17;11.63;;;;;;;-1.24;100.00;148357.66;10674557;27;20035;-75
2024/02/29 06:52:03;;;;;;;30.42;14.05;;;;;;;-1.17;100.00;148374.31;10673773;27;20158;-75
2024/02/29 06:57:05;;;;;;;36.78;14.00;;;;;;;-0.80;100.00;148468.97;10654279;27;20454;-75
2024/02/29 07:02:07;;;;;;;31.55;15.02;;;;;;;-0.63;100.00;148509.91;10673021;27;20042;-74
2024/02/29 07:07:09;;;;;;;38.67;15.77;;;;;;;-0.73;100.00;148485.59;10655495;27;20480;-75
2024/02/29 07:12:11;;;;;;;50.05;17.05;;;;;;;-0.61;100.00;148515.03;10673123;27;20038;-75
2024/02/29 07:17:13;;;;;;;33.50;16.75;;;;;;;-0.18;100.00;148623.78;10654112;27;20125;-75
2024/02/29 07:22:15;;;;;;;48.90;17.45;;;;;;;-0.15;100.00;148631.47;10654276;27;20038;-75
2024/02/29 07:27:17;;;;;;;42.20;15.82;;;;;;;-0.02;100.00;148663.47;10654258;27;20110;-75
2024/02/29 07:32:18;;;;;;;38.25;15.77;;;;;;;0.22;100.00;148723.63;10653040;27;20042;-75
2024/02/29 07:37:20;;;;;;;39.95;16.40;;;;;;;0.64;100.00;148829.94;10672024;27;20039;-74
2024/02/29 07:42:22;;;;;;;42.00;16.85;;;;;;;1.08;100.00;148938.84;10671815;27;20102;-75
2024/02/29 07:47:24;;;;;;;31.23;15.00;;;;;;;0.94;100.00;148904.25;10671153;27;20121;-74
2024/02/29 07:52:27;;;;;;;36.63;15.70;;;;;;;1.21;100.00;148973.44;10670543;27;20165;-74
2024/02/29 07:57:29;;;;;;;27.17;14.95;;;;;;;1.47;100.00;149038.81;10651783;27;20447;-75
2024/02/29 08:02:30;;;;;;;35.22;15.98;;;;;;;1.63;100.00;149078.50;10669308;27;20080;-75
2024/02/29 08:07:32;;;;;;;24.27;15.18;;;;;;;1.64;100.00;149079.78;10669971;27;20047;-74
2024/02/29 08:12:35;;;;;;;32.20;16.38;;;;;;;1.31;100.00;148997.78;10670179;27;20072;-75
2024/02/29 08:17:37;;;;;;;35.60;16.20;;;;;;;1.46;100.00;149034.94;10651479;27;20089;-74
2024/02/29 08:22:39;;;;;;;25.25;15.52;;;;;;;1.87;100.00;149137.53;10651558;27;20042;-74
2024/02/29 08:27:41;;;;;;;33.85;16.25;;;;;;;2.17;100.00;149214.47;10649223;27;20043;-75
2024/02/29 08:32:43;;;;;;;29.77;14.82;;;;;;;2.45;100.00;149285.00;10667998;27;20057;-74
2024/02/29 08:37:45;;;;;;;21.83;14.07;;;;;;;2.45;100.00;149285.00;10649646;27;20395;-75
2024/02/29 08:42:47;;;;;;;28.13;14.80;;;;;;;2.52;100.00;149302.97;10674890;27;20047;-75
2024/02/29 08:47:50;;;;;;;25.60;14.13;;;;;;;2.73;100.00;149354.28;10677915;27;20099;-74
2024/02/29 08:52:51;;;;;;;27.75;14.35;;;;;;;2.93;100.00;149404.34;10675811;27;20054;-74
2024/02/29 08:57:53;;;;;;;29.95;14.52;;;;;;;2.96;100.00;149413.28;10677664;27;20447;-73
2024/02/29 09:02:56;;;;;;;21.10;13.90;;;;;;;2.81;100.00;149373.53;10682952;27;20099;-72
2024/02/29 09:07:58;;;;;;;21.30;13.00;;;;;;;3.35;100.00;149510.84;10684287;27;20490;-73
2024/02/29 09:13:00;;;;;;;30.55;16.90;;;;;;;3.79;100.00;149621.28;10665329;27;20074;-73
2024/02/29 09:18:02;;;;;;;19.13;13.20;;;;;;;3.98;100.00;149670.06;10683796;27;20073;-73
2024/02/29 09:23:04;;;;;;;17.45;11.88;;;;;;;4.29;100.00;149748.47;10665809;27;20055;-73
2024/02/29 09:28:06;;;;;;;21.77;13.45;;;;;;;4.47;100.00;149793.44;10685705;27;20436;-74
2024/02/29 09:33:07;;;;;;;15.38;12.15;;;;;;;4.45;100.00;149788.28;10666144;27;20118;-73
2024/02/29 09:38:09;;;;;;;17.00;13.00;;;;;;;4.65;100.00;149838.44;10647744;27;20450;-74
2024/02/29 09:43:11;;;;;;;15.55;12.60;;;;;;;4.89;100.00;149898.81;10652632;27;20107;-75
2024/02/29 09:48:14;;;;;;;18.20;13.10;;;;;;;4.79;100.00;149874.41;10684088;27;20074;-74
2024/02/29 09:53:18;;;;;;;16.15;12.70;;;;;;;5.25;100.00;149988.81;10683352;27;20129;-74
2024/02/29 09:58:21;;;;;;;17.13;12.15;;;;;;;5.46;100.00;150042.81;10666770;27;20095;-74
2024/02/29 10:03:24;;;;;;;14.23;11.30;;;;;;;5.30;100.00;150001.66;10685705;27;20039;-73
2024/02/29 10:08:28;;;;;;;13.52;11.38;;;;;;;5.49;100.00;150049.22;10647367;27;20043;-74
2024/02/29 10:13:40;;;;;;;12.30;11.00;;;;;;;6.22;97.28;150234.53;10656472;27;20384;-74
2024/02/29 10:18:42;;;;;;;13.57;11.80;;;;;;;6.66;93.84;150343.94;10619312;27;20051;-74
2024/02/29 10:23:44;;;;;;;14.57;12.32;;;;;;;6.97;91.94;150422.47;10638696;27;20471;-74
2024/02/29 10:28:45;;;;;;;15.73;12.65;;;;;;;7.29;89.62;150503.59;10637431;27;20057;-73
2024/02/29 10:33:48;;;;;;;12.15;10.85;;;;;;;7.61;88.29;150583.44;10636034;27;20070;-74
2024/02/29 10:38:50;;;;;;;13.07;11.13;;;;;;;8.03;85.92;150691.69;10636246;27;20506;-74
2024/02/29 10:43:54;;;;;;;15.95;11.45;;;;;;;8.38;82.50;150779.38;10637743;27;20043;-73
2024/02/29 10:49:05;;;;;;;17.17;12.00;;;;;;;8.51;81.69;150811.59;10636626;27;20088;-73
2024/02/29 10:54:25;;;;;;;12.70;11.40;;;;;;;8.96;83.17;150926.34;10637917;27;20414;-73
2024/02/29 10:59:29;;;;;;;13.88;11.60;;;;;;;9.19;78.98;150983.09;10633933;27;20095;-74
2024/02/29 11:04:31;;;;;;;13.50;12.10;;;;;;;9.46;79.12;151052.75;10644304;27;20043;-73
2024/02/29 11:09:33;;;;;;;15.40;13.00;;;;;;;9.44;77.32;151047.59;10616875;27;20039;-73
2024/02/29 11:14:38;;;;;;;13.35;12.05;;;;;;;9.01;78.27;150937.94;10615473;27;20058;-73
2024/02/29 11:19:40;;;;;;;12.77;11.45;;;;;;;8.99;78.84;150934.09;10614240;27;20043;-73
2024/02/29 11:24:55;;;;;;;13.52;12.20;;;;;;;8.87;79.76;150901.84;10633631;27;20138;-73
2024/02/29 11:30:01;;;;;;;13.23;11.80;;;;;;;8.73;80.06;150867.06;10616125;27;20107;-73
2024/02/29 11:35:04;;;;;;;15.37;12.37;;;;;;;9.10;77.93;150962.44;10633749;27;20043;-73
2024/02/29 11:40:12;;;;;;;13.32;11.90;;;;;;;9.01;79.08;150939.25;10634037;27;20111;-72
2024/02/29 11:45:23;;;;;;;13.68;12.00;;;;;;;9.18;78.58;150981.81;10632540;27;20081;-72
2024/02/29 11:50:25;;;;;;;12.63;11.32;;;;;;;9.30;79.64;151011.50;10634907;27;20066;-72
2024/02/29 11:55:27;;;;;;;12.85;11.13;;;;;;;9.59;78.56;151085.00;10615690;27;20454;-73
2024/02/29 12:00:29;;;;;;;12.30;11.10;;;;;;;9.52;77.08;151068.25;10615362;27;20042;-72
2024/02/29 12:05:34;;;;;;;12.55;10.50;;;;;;;9.47;78.14;151055.31;10631765;27;20059;-72
2024/02/29 12:10:38;;;;;;;10.63;9.63;;;;;;;9.44;76.81;151047.59;10633471;27;20483;-72
2024/02/29 12:15:40;;;;;;;9.65;8.75;;;;;;;9.59;75.89;151086.28;10630746;27;20043;-73
2024/02/29 12:20:42;;;;;;;8.15;6.20;;;;;;;9.59;72.78;151085.00;10632090;27;20035;-72
2024/02/29 12:25:45;;;;;;;7.18;5.95;;;;;;;9.36;74.40;151026.94;10612838;27;20054;-72
2024/02/29 12:30:48;;;;;;;7.93;6.90;;;;;;;9.48;74.06;151057.94;10631661;28;20039;-72
2024/02/29 12:35:51;;;;;;;8.00;7.20;;;;;;;9.82;71.75;151143.06;10634260;28;20043;-72
2024/02/29 12:40:54;;;;;;;8.70;7.43;;;;;;;9.66;76.18;151101.78;10615822;28;20043;-73
2024/02/29 12:45:56;;;;;;;8.05;7.22;;;;;;;9.87;72.71;151155.94;10633291;28;20103;-73
2024/02/29 12:50:58;;;;;;;9.38;8.38;;;;;;;9.72;75.42;151118.53;10614648;28;20057;-73
2024/02/29 12:56:00;;;;;;;7.22;6.25;;;;;;;9.18;75.72;150981.81;10633995;28;20078;-73
2024/02/29 13:01:05;;;;;;;6.88;6.18;;;;;;;9.10;73.79;150962.44;10621260;28;20127;-73
2024/02/29 13:06:09;;;;;;;7.50;6.80;;;;;;;8.99;77.07;150934.09;10615101;28;20134;-72
2024/02/29 13:11:11;;;;;;;7.35;6.45;;;;;;;9.06;75.86;150950.84;10631870;28;20114;-73
2024/02/29 13:16:12;;;;;;;8.30;7.40;;;;;;;9.27;74.75;151005.03;10632857;28;20043;-72
2024/02/29 13:21:14;;;;;;;7.55;6.55;;;;;;;8.97;75.23;150928.91;10631592;28;20043;-72
2024/02/29 13:26:16;;;;;;;7.38;6.53;;;;;;;8.96;75.77;150925.06;10633507;27;20039;-71
2024/02/29 13:31:18;;;;;;;9.02;7.20;;;;;;;8.92;77.61;150914.75;10640846;27;20043;-72
2024/02/29 13:36:20;;;;;;;7.15;6.55;;;;;;;9.01;76.73;150937.94;10629799;27;20111;-73
2024/02/29 13:41:21;;;;;;;7.20;6.43;;;;;;;9.01;76.44;150939.25;10676149;27;20456;-73
2024/02/29 13:46:24;;;;;;;8.00;6.85;;;;;;;8.81;78.93;150887.69;10640623;27;20043;-73
2024/02/29 13:51:27;;;;;;;13.18;7.82;;;;;;;8.62;79.86;150838.66;10656829;27;20041;-72
2024/02/29 13:56:29;;;;;;;7.53;6.75;;;;;;;8.52;78.23;150815.47;10664244;27;20506;-73
2024/02/29 14:01:31;;;;;;;7.03;6.32;;;;;;;8.46;79.12;150798.72;10684214;27;20039;-73
2024/02/29 14:06:33;;;;;;;8.07;6.75;;;;;;;8.35;79.27;150772.88;10663262;27;20103;-73
2024/02/29 14:11:35;;;;;;;8.13;6.88;;;;;;;8.30;80.23;150759.97;10640445;27;20137;-73
2024/02/29 14:16:37;;;;;;;10.35;7.43;;;;;;;8.37;79.83;150776.81;10640340;27;20133;-72
2024/02/29 14:21:39;;;;;;;8.43;7.55;;;;;;;8.52;79.38;150815.47;10637115;27;20115;-73
2024/02/29 14:26:41;;;;;;;11.50;8.50;;;;;;;8.40;80.81;150784.50;10639510;27;20043;-73
2024/02/29 14:31:43;;;;;;;9.55;8.25;;;;;;;8.39;78.88;150780.66;10619890;27;20035;-72
2024/02/29 14:36:45;;;;;;;8.32;7.53;;;;;;;8.38;79.48;150779.38;10637426;27;20103;-72
2024/02/29 14:41:47;;;;;;;10.93;7.88;;;;;;;8.19;79.78;150730.31;10620871;27;20103;-72
2024/02/29 14:46:50;;;;;;;13.60;7.75;;;;;;;8.39;79.30;150781.94;10620661;27;20039;-73
2024/02/29 14:51:58;;;;;;;8.05;7.35;;;;;;;8.47;78.95;150802.56;10637182;27;20551;-71
2024/02/29 14:57:01;;;;;;;12.32;9.70;;;;;;;8.36;78.14;150774.16;10637692;27;20095;-72
2024/02/29 15:02:02;;;;;;;10.65;9.55;;;;;;;8.14;80.34;150717.44;10617509;27;20081;-72
2024/02/29 15:07:05;;;;;;;11.82;9.63;;;;;;;8.00;80.60;150682.66;10636351;27;20039;-72
2024/02/29 15:12:08;;;;;;;12.52;11.23;;;;;;;7.82;81.15;150637.56;10621479;27;20491;-72
2024/02/29 15:17:09;;;;;;;13.82;10.95;;;;;;;7.75;82.40;150619.53;10634819;27;20058;-73
2024/02/29 15:22:11;;;;;;;14.18;11.23;;;;;;;7.74;82.00;150616.94;10634516;27;20047;-71
2024/02/29 15:27:13;;;;;;;14.63;11.27;;;;;;;7.88;82.34;150653.03;10635040;27;20043;-72
2024/02/29 15:32:16;;;;;;;10.93;9.82;;;;;;;7.83;82.44;150641.44;10635771;27;20043;-72
2024/02/29 15:37:18;;;;;;;11.15;9.90;;;;;;;7.80;82.39;150632.44;10649309;27;20384;-72
2024/02/29 15:42:20;;;;;;;11.23;9.82;;;;;;;7.39;85.82;150529.34;10641836;27;20039;-72
2024/02/29 15:47:25;;;;;;;11.48;10.38;;;;;;;7.50;84.80;150556.41;10676155;27;20070;-72
2024/02/29 15:52:27;;;;;;;13.77;11.55;;;;;;;7.52;84.82;150562.81;10664275;27;20584;-72
2024/02/29 15:57:29;;;;;;;12.40;11.20;;;;;;;7.44;85.38;150542.25;10634038;27;20129;-72
2024/02/29 16:02:31;;;;;;;13.65;11.45;;;;;;;7.51;85.67;150558.97;10633384;27;20045;-73
2024/02/29 16:07:33;;;;;;;12.18;10.98;;;;;;;7.39;86.29;150529.34;10633999;27;20059;-73
2024/02/29 16:12:37;;;;;;;13.10;11.38;;;;;;;7.21;87.61;150482.97;10670619;27;20066;-72
2024/02/29 16:17:39;;;;;;;12.70;10.55;;;;;;;7.13;87.49;150462.34;10675754;27;20138;-73
2024/02/29 16:22:41;;;;;;;15.02;11.30;;;;;;;7.30;86.72;150506.16;10614781;27;20104;-72
2024/02/29 16:27:45;;;;;;;13.50;10.77;;;;;;;7.27;85.64;150498.47;10626453;27;20051;-72
2024/02/29 16:32:47;;;;;;;16.27;11.40;;;;;;;6.99;87.83;150427.59;10573374;28;20031;-72
2024/02/29 16:37:49;;;;;;;13.25;11.80;;;;;;;7.14;86.64;150466.25;10600930;27;20051;-72
2024/02/29 16:42:51;;;;;;;13.48;12.02;;;;;;;6.99;87.89;150428.88;10627182;28;20035;-72
2024/02/29 16:47:53;;;;;;;14.52;11.95;;;;;;;6.97;88.34;150423.75;10572848;28;20059;-72
2024/02/29 16:52:54;;;;;;;18.23;13.45;;;;;;;7.00;89.04;150430.22;10588655;28;20143;-71
2024/02/29 16:57:56;;;;;;;14.23;12.63;;;;;;;6.85;90.14;150391.56;10613992;28;20081;-72
2024/02/29 17:02:59;;;;;;;16.67;13.68;;;;;;;6.70;91.97;150355.53;10619965;27;20134;-73
2024/02/29 17:08:01;;;;;;;15.90;12.80;;;;;;;6.93;91.08;150412.16;10640316;27;20068;-71
2024/02/29 17:13:02;;;;;;;19.17;13.68;;;;;;;6.92;91.49;150410.88;10580801;28;20139;-72
2024/02/29 17:18:04;;;;;;;16.33;13.48;;;;;;;6.95;91.69;150417.28;10596132;28;20055;-73
2024/02/29 17:23:06;;;;;;;20.42;15.00;;;;;;;7.01;91.43;150432.78;10597868;28;20043;-73
2024/02/29 17:28:08;;;;;;;16.23;14.40;;;;;;;6.66;94.39;150345.22;10595002;28;20503;-73
2024/02/29 17:33:10;;;;;;;19.60;15.25;;;;;;;6.74;95.78;150365.81;10570648;28;20051;-73
2024/02/29 17:38:11;;;;;;;19.15;15.52;;;;;;;6.92;94.10;150409.59;10589477;28;20119;-73
2024/02/29 17:43:13;;;;;;;24.75;15.45;;;;;;;6.94;94.19;150414.72;10589451;28;20110;-72
2024/02/29 17:48:19;;;;;;;20.05;14.88;;;;;;;6.69;96.46;150351.69;10590225;28;20430;-72
2024/02/29 17:53:21;;;;;;;19.23;15.52;;;;;;;6.73;96.14;150363.25;10589682;28;20445;-74
2024/02/29 17:58:22;;;;;;;25.02;15.88;;;;;;;7.08;94.77;150452.09;10589160;28;20074;-72
2024/02/29 18:03:24;;;;;;;20.48;14.20;;;;;;;6.88;95.06;150400.59;10571559;28;20047;-72
2024/02/29 18:08:26;;;;;;;25.17;16.10;;;;;;;6.95;96.33;150418.63;10588594;28;20152;-72
2024/02/29 18:13:28;;;;;;;22.60;15.63;;;;;;;6.62;98.12;150333.63;10587773;28;20039;-72
2024/02/29 18:18:29;;;;;;;22.73;15.88;;;;;;;6.54;99.37;150314.31;10569464;28;20059;-73
2024/02/29 18:23:31;;;;;;;29.10;14.88;;;;;;;6.57;99.21;150323.34;10588596;28;20050;-73
2024/02/29 18:28:33;;;;;;;26.15;16.10;;;;;;;6.91;96.67;150408.31;10570346;28;20039;-74
2024/02/29 18:33:36;;;;;;;23.42;14.68;;;;;;;6.62;98.60;150333.63;10572302;28;20044;-73
2024/02/29 18:38:38;;;;;;;31.13;15.90;;;;;;;6.80;98.09;150379.97;10590917;28;20039;-72
2024/02/29 18:43:40;;;;;;;26.80;15.10;;;;;;;6.48;99.86;150298.91;10571357;28;20071;-72
2024/02/29 18:48:42;;;;;;;25.67;15.02;;;;;;;6.20;100.00;150229.41;10588576;28;20040;-71
2024/02/29 18:53:44;;;;;;;28.25;15.80;;;;;;;6.12;100.00;150207.53;10587715;28;20487;-71
2024/02/29 18:58:46;;;;;;;22.33;14.43;;;;;;;6.00;100.00;150179.22;10587886;28;20039;-71
2024/02/29 19:03:48;;;;;;;22.17;15.45;;;;;;;6.36;100.00;150268.00;10572195;28;20050;-71
2024/02/29 19:08:50;;;;;;;33.88;17.30;;;;;;;6.17;100.00;150221.69;10589007;28;20579;-71
2024/02/29 19:13:52;;;;;;;26.63;17.52;;;;;;;6.27;100.00;150246.13;10589620;28;20036;-70
2024/02/29 19:18:53;;;;;;;20.08;15.63;;;;;;;6.16;100.00;150217.81;10588833;28;20039;-71
2024/02/29 19:23:55;;;;;;;28.15;16.10;;;;;;;6.21;100.00;150231.97;10586007;28;20496;-71
2024/02/29 19:28:57;;;;;;;29.17;16.13;;;;;;;6.22;100.00;150233.25;10586365;28;20035;-71
2024/02/29 19:33:59;;;;;;;31.48;16.08;;;;;;;6.28;100.00;150249.97;10567556;28;20043;-71
2024/02/29 19:39:01;;;;;;;28.25;17.17;;;;;;;6.27;100.00;150246.13;10586300;28;20101;-70
2024/02/29 19:44:03;;;;;;;27.25;16.80;;;;;;;6.12;100.00;150208.81;10586012;28;20031;-70
2024/02/29 19:49:05;;;;;;;27.10;17.13;;;;;;;6.18;100.00;150224.25;10567767;28;20090;-72
2024/02/29 19:54:07;;;;;;;29.25;17.08;;;;;;;6.18;100.00;150224.25;10584758;28;20039;-71
2024/02/29 19:59:09;;;;;;;31.88;17.48;;;;;;;6.05;100.00;150190.78;10585055;28;20088;-71
2024/02/29 20:04:10;;;;;;;29.70;16.88;;;;;;;5.82;100.00;150132.84;10585494;28;20039;-71
2024/02/29 20:09:12;;;;;;;22.95;17.88;;;;;;;5.69;100.00;150099.41;10584022;28;20054;-71
2024/02/29 20:14:14;;;;;;;26.88;17.02;;;;;;;5.95;100.00;150166.34;10584590;28;20032;-72
2024/02/29 20:19:16;;;;;;;30.20;17.48;;;;;;;5.74;100.00;150112.25;10584496;28;20044;-71
2024/02/29 20:24:18;;;;;;;35.42;18.63;;;;;;;5.92;100.00;150157.34;10585505;28;20059;-71
2024/02/29 20:29:19;;;;;;;28.55;17.98;;;;;;;5.70;100.00;150103.25;10584535;28;20403;-71
2024/02/29 20:34:21;;;;;;;35.08;17.95;;;;;;;5.93;100.00;150159.91;10584428;28;20059;-71
2024/02/29 20:39:23;;;;;;;30.10;17.63;;;;;;;5.93;100.00;150159.91;10593549;28;20039;-71
2024/02/29 20:44:25;;;;;;;28.60;17.42;;;;;;;5.89;100.00;150149.56;10594263;28;20110;-71
2024/02/29 20:49:26;;;;;;;35.65;18.65;;;;;;;6.18;100.00;150224.25;10594387;28;20035;-72
2024/02/29 20:54:28;;;;;;;37.38;18.73;;;;;;;6.32;100.00;150258.97;10593433;28;20047;-70
2024/02/29 20:59:31;;;;;;;26.83;18.38;;;;;;;6.21;100.00;150230.69;10593236;28;20567;-71
2024/02/29 21:04:32;;;;;;;34.05;18.88;;;;;;;6.20;100.00;150229.41;10574024;28;20424;-71
2024/02/29 21:09:34;;;;;;;32.35;18.48;;;;;;;5.94;100.00;150162.50;10592529;28;20452;-71
2024/02/29 21:14:36;;;;;;;36.28;17.85;;;;;;;6.00;100.00;150177.94;10592349;28;20043;-70
2024/02/29 21:19:38;;;;;;;29.48;17.80;;;;;;;5.69;100.00;150100.69;10592207;28;20085;-71
2024/02/29 21:24:40;;;;;;;29.42;18.27;;;;;;;5.47;100.00;150044.09;10592059;28;20104;-71
2024/02/29 21:29:46;;;;;;;29.45;16.95;;;;;;;5.27;100.00;149993.97;10591077;28;20036;-70
2024/02/29 21:34:47;;;;;;;19.83;15.55;;;;;;;5.02;100.00;149930.97;10590577;28;20103;-70
2024/02/29 21:39:49;;;;;;;29.45;17.17;;;;;;;5.05;100.00;149938.69;10590997;28;20047;-70
2024/02/29 21:44:51;;;;;;;32.67;18.20;;;;;;;5.05;100.00;149939.97;10590217;28;20043;-71
2024/02/29 21:49:53;;;;;;;34.33;18.52;;;;;;;5.37;100.00;150018.41;10571275;28;20454;-71
2024/02/29 21:54:54;;;;;;;26.50;17.55;;;;;;;4.99;100.00;149924.50;10590133;28;20060;-70
2024/02/29 21:59:56;;;;;;;37.05;18.13;;;;;;;4.85;100.00;149888.53;10589580;28;20120;-70
2024/02/29 22:04:59;;;;;;;35.72;18.90;;;;;;;5.38;100.00;150022.22;10589917;28;20114;-71
2024/02/29 22:10:01;;;;;;;39.30;19.58;;;;;;;5.40;100.00;150026.06;10589880;28;20055;-71
2024/02/29 22:15:03;;;;;;;49.95;20.85;;;;;;;5.60;100.00;150077.53;10589775;28;20048;-71
2024/02/29 22:20:07;;;;;;;42.30;20.65;;;;;;;5.57;100.00;150069.81;10588703;28;20107;-70
2024/02/29 22:25:14;;;;;;;30.40;18.05;;;;;;;5.32;100.00;150008.09;10589812;28;20043;-70
2024/02/29 22:30:17;;;;;;;41.78;20.60;;;;;;;5.06;100.00;149941.25;10589445;28;20039;-71
2024/02/29 22:35:19;;;;;;;29.52;17.90;;;;;;;5.12;100.00;149955.38;10588360;28;20071;-70
2024/02/29 22:40:21;;;;;;;32.67;18.77;;;;;;;5.06;100.00;149942.53;10570060;28;20044;-70
2024/02/29 22:45:23;;;;;;;40.95;20.10;;;;;;;4.98;100.00;149921.94;10587568;28;20046;-70